sensor_id;sensor_type;location;lat;lon;timestamp;pressure;altitude;pressure_sealevel;temperature;humidity
46846;BME280;33947;46.804;134.252;2023-05-25T00:00:53;100439.84;;;30.13;28.30
46846;BME280;33947;46.804;134.252;2023-05-25T00:04:04;100440.81;;;29.11;29.67
46846;BME280;33947;46.804;134.252;2023-05-25T00:07:09;100436.28;;;28.58;29.84
46846;BME280;33947;46.804;134.252;2023-05-25T00:10:13;100415.03;;;28.44;29.26
46846;BME280;33947;46.804;134.252;2023-05-25T00:13:17;100439.47;;;27.83;30.58
46846;BME280;33947;46.804;134.252;2023-05-25T00:16:22;100432.59;;;27.42;31.05
46846;BME280;33947;46.804;134.252;2023-05-25T00:19:30;100420.84;;;27.14;31.58
46846;BME280;33947;46.804;134.252;2023-05-25T00:22:42;100411.41;;;26.90;32.50
46846;BME280;33947;46.804;134.252;2023-05-25T00:25:50;100430.75;;;27.97;31.33
46846;BME280;33947;46.804;134.252;2023-05-25T00:29:06;100425.38;;;27.23;32.14
46846;BME280;33947;46.804;134.252;2023-05-25T00:32:13;100441.75;;;26.57;32.74
46846;BME280;33947;46.804;134.252;2023-05-25T00:35:23;100381.16;;;26.46;32.91
46846;BME280;33947;46.804;134.252;2023-05-25T00:38:33;100434.34;;;28.42;30.40
46846;BME280;33947;46.804;134.252;2023-05-25T00:41:52;100436.50;;;29.51;28.98
46846;BME280;33947;46.804;134.252;2023-05-25T00:45:03;100433.31;;;30.30;28.14
46846;BME280;33947;46.804;134.252;2023-05-25T00:48:11;100423.38;;;30.94;26.90
46846;BME280;33947;46.804;134.252;2023-05-25T00:51:33;100420.66;;;30.86;27.68
46846;BME280;33947;46.804;134.252;2023-05-25T00:54:43;100430.72;;;31.02;27.38
46846;BME280;33947;46.804;134.252;2023-05-25T00:57:57;100418.94;;;31.25;26.14
46846;BME280;33947;46.804;134.252;2023-05-25T01:01:08;100436.81;;;31.21;26.88
46846;BME280;33947;46.804;134.252;2023-05-25T01:04:29;100432.06;;;31.38;26.20
46846;BME280;33947;46.804;134.252;2023-05-25T01:07:43;100413.13;;;31.74;25.58
46846;BME280;33947;46.804;134.252;2023-05-25T01:10:54;100429.97;;;31.71;25.83
46846;BME280;33947;46.804;134.252;2023-05-25T01:14:02;100435.06;;;32.21;25.58
46846;BME280;33947;46.804;134.252;2023-05-25T01:17:13;100426.16;;;32.19;24.83
46846;BME280;33947;46.804;134.252;2023-05-25T01:20:21;100418.41;;;31.84;25.97
46846;BME280;33947;46.804;134.252;2023-05-25T01:23:32;100429.91;;;32.71;24.64
46846;BME280;33947;46.804;134.252;2023-05-25T01:27:02;100435.13;;;32.36;25.53
46846;BME280;33947;46.804;134.252;2023-05-25T01:30:12;100429.25;;;31.78;25.74
46846;BME280;33947;46.804;134.252;2023-05-25T01:33:20;100426.50;;;32.54;24.93
46846;BME280;33947;46.804;134.252;2023-05-25T01:36:27;100428.38;;;32.39;24.75
46846;BME280;33947;46.804;134.252;2023-05-25T01:39:36;100427.06;;;32.80;24.28
46846;BME280;33947;46.804;134.252;2023-05-25T01:42:44;100428.84;;;33.17;23.98
46846;BME280;33947;46.804;134.252;2023-05-25T01:45:53;100413.13;;;32.96;24.07
46846;BME280;33947;46.804;134.252;2023-05-25T01:52:41;100414.56;;;32.62;25.61
46846;BME280;33947;46.804;134.252;2023-05-25T01:56:04;100403.06;;;32.58;23.85
46846;BME280;33947;46.804;134.252;2023-05-25T01:59:19;100413.47;;;33.08;24.40
46846;BME280;33947;46.804;134.252;2023-05-25T02:02:32;100408.28;;;32.53;24.91
46846;BME280;33947;46.804;134.252;2023-05-25T02:05:36;100382.38;;;31.56;25.68
46846;BME280;33947;46.804;134.252;2023-05-25T02:08:44;100384.09;;;31.80;25.00
46846;BME280;33947;46.804;134.252;2023-05-25T02:11:51;100388.59;;;31.50;25.69
46846;BME280;33947;46.804;134.252;2023-05-25T02:14:56;100390.03;;;30.74;27.28
46846;BME280;33947;46.804;134.252;2023-05-25T02:18:01;100394.22;;;30.53;27.09
46846;BME280;33947;46.804;134.252;2023-05-25T02:21:06;100387.84;;;30.69;27.31
46846;BME280;33947;46.804;134.252;2023-05-25T02:24:10;100383.56;;;30.67;27.19
46846;BME280;33947;46.804;134.252;2023-05-25T02:27:14;100389.31;;;30.80;26.55
46846;BME280;33947;46.804;134.252;2023-05-25T02:30:21;100372.44;;;30.60;26.88
46846;BME280;33947;46.804;134.252;2023-05-25T02:33:46;100375.34;;;30.67;27.36
46846;BME280;33947;46.804;134.252;2023-05-25T02:36:50;100363.59;;;30.41;27.21
46846;BME280;33947;46.804;134.252;2023-05-25T02:39:58;100368.22;;;30.32;27.47
46846;BME280;33947;46.804;134.252;2023-05-25T02:43:07;100367.59;;;30.14;27.62
46846;BME280;33947;46.804;134.252;2023-05-25T02:51:42;100213.50;;;29.30;27.63
46846;BME280;33947;46.804;134.252;2023-05-25T02:56:06;100245.97;;;29.50;27.52
46846;BME280;33947;46.804;134.252;2023-05-25T03:00:17;100218.28;;;29.53;27.46
46846;BME280;33947;46.804;134.252;2023-05-25T03:04:55;100273.56;;;29.40;27.92
46846;BME280;33947;46.804;134.252;2023-05-25T03:08:11;100349.47;;;29.63;29.22
46846;BME280;33947;46.804;134.252;2023-05-25T03:11:39;100342.81;;;29.66;28.92
46846;BME280;33947;46.804;134.252;2023-05-25T03:14:53;100342.28;;;29.54;29.20
46846;BME280;33947;46.804;134.252;2023-05-25T03:18:01;100327.19;;;29.08;29.22
46846;BME280;33947;46.804;134.252;2023-05-25T03:21:16;100342.75;;;29.24;29.62
46846;BME280;33947;46.804;134.252;2023-05-25T03:24:20;100350.56;;;29.02;30.62
46846;BME280;33947;46.804;134.252;2023-05-25T03:27:29;100323.34;;;28.84;29.92
46846;BME280;33947;46.804;134.252;2023-05-25T03:30:37;100325.00;;;28.69;30.16
46846;BME280;33947;46.804;134.252;2023-05-25T03:33:55;100343.09;;;28.62;29.83
46846;BME280;33947;46.804;134.252;2023-05-25T03:37:14;100333.41;;;28.41;29.53
46846;BME280;33947;46.804;134.252;2023-05-25T03:40:22;100356.94;;;28.34;30.17
46846;BME280;33947;46.804;134.252;2023-05-25T03:43:53;100359.63;;;28.25;30.72
46846;BME280;33947;46.804;134.252;2023-05-25T03:47:38;100250.03;;;27.94;31.18
46846;BME280;33947;46.804;134.252;2023-05-25T03:51:00;100354.53;;;28.65;30.77
46846;BME280;33947;46.804;134.252;2023-05-25T03:54:06;100347.31;;;28.56;30.83
46846;BME280;33947;46.804;134.252;2023-05-25T03:57:10;100331.47;;;28.68;30.95
46846;BME280;33947;46.804;134.252;2023-05-25T04:00:15;100349.59;;;28.69;30.20
46846;BME280;33947;46.804;134.252;2023-05-25T04:03:22;100357.13;;;28.40;30.87
46846;BME280;33947;46.804;134.252;2023-05-25T04:06:26;100350.53;;;28.51;30.70
46846;BME280;33947;46.804;134.252;2023-05-25T04:09:32;100336.94;;;28.07;30.99
46846;BME280;33947;46.804;134.252;2023-05-25T04:12:36;100345.97;;;27.81;31.02
46846;BME280;33947;46.804;134.252;2023-05-25T04:15:40;100340.06;;;27.85;30.33
46846;BME280;33947;46.804;134.252;2023-05-25T04:18:52;100340.41;;;27.64;30.32
46846;BME280;33947;46.804;134.252;2023-05-25T04:22:00;100294.28;;;27.35;30.32
46846;BME280;33947;46.804;134.252;2023-05-25T04:25:06;100341.88;;;27.40;30.73
46846;BME280;33947;46.804;134.252;2023-05-25T04:28:11;100345.53;;;27.49;30.52
46846;BME280;33947;46.804;134.252;2023-05-25T04:31:28;100340.16;;;27.57;30.35
46846;BME280;33947;46.804;134.252;2023-05-25T04:35:02;100339.53;;;27.64;29.52
46846;BME280;33947;46.804;134.252;2023-05-25T04:38:23;100337.13;;;28.05;29.25
46846;BME280;33947;46.804;134.252;2023-05-25T04:41:28;100331.63;;;28.23;28.69
46846;BME280;33947;46.804;134.252;2023-05-25T04:44:36;100326.44;;;28.47;28.40
46846;BME280;33947;46.804;134.252;2023-05-25T04:47:42;100327.13;;;28.92;28.66
46846;BME280;33947;46.804;134.252;2023-05-25T04:50:48;100320.13;;;28.81;28.09
46846;BME280;33947;46.804;134.252;2023-05-25T04:53:54;100306.16;;;28.57;28.27
46846;BME280;33947;46.804;134.252;2023-05-25T04:56:58;100288.78;;;27.97;28.25
46846;BME280;33947;46.804;134.252;2023-05-25T05:00:08;100312.75;;;28.12;28.21
46846;BME280;33947;46.804;134.252;2023-05-25T05:03:31;100302.06;;;27.92;27.97
46846;BME280;33947;46.804;134.252;2023-05-25T05:06:38;100303.13;;;27.99;28.13
46846;BME280;33947;46.804;134.252;2023-05-25T05:09:46;100284.13;;;28.16;27.98
46846;BME280;33947;46.804;134.252;2023-05-25T05:12:52;100301.94;;;28.28;27.82
46846;BME280;33947;46.804;134.252;2023-05-25T05:15:56;100281.50;;;28.06;28.83
46846;BME280;33947;46.804;134.252;2023-05-25T05:19:00;100294.59;;;28.29;28.78
46846;BME280;33947;46.804;134.252;2023-05-25T05:22:06;100283.84;;;28.27;28.69
46846;BME280;33947;46.804;134.252;2023-05-25T05:25:13;100288.19;;;28.47;27.94
46846;BME280;33947;46.804;134.252;2023-05-25T05:28:17;100285.63;;;28.45;28.27
46846;BME280;33947;46.804;134.252;2023-05-25T05:31:22;100274.91;;;28.52;27.97
46846;BME280;33947;46.804;134.252;2023-05-25T05:34:26;100287.41;;;28.71;27.91
46846;BME280;33947;46.804;134.252;2023-05-25T05:37:31;100290.41;;;28.51;27.42
46846;BME280;33947;46.804;134.252;2023-05-25T05:40:35;100283.84;;;28.27;28.07
46846;BME280;33947;46.804;134.252;2023-05-25T05:43:40;100285.50;;;28.20;28.68
46846;BME280;33947;46.804;134.252;2023-05-25T05:46:47;100282.25;;;28.16;28.65
46846;BME280;33947;46.804;134.252;2023-05-25T05:49:52;100288.78;;;28.24;28.72
46846;BME280;33947;46.804;134.252;2023-05-25T05:52:59;100284.19;;;28.24;28.83
46846;BME280;33947;46.804;134.252;2023-05-25T05:56:03;100259.28;;;28.27;28.83
46846;BME280;33947;46.804;134.252;2023-05-25T05:59:10;100287.66;;;28.43;29.00
46846;BME280;33947;46.804;134.252;2023-05-25T06:02:15;100295.19;;;28.49;28.06
46846;BME280;33947;46.804;134.252;2023-05-25T06:05:21;100289.94;;;28.21;27.97
46846;BME280;33947;46.804;134.252;2023-05-25T06:08:27;100312.66;;;28.22;27.79
46846;BME280;33947;46.804;134.252;2023-05-25T06:11:35;100294.88;;;27.91;28.40
46846;BME280;33947;46.804;134.252;2023-05-25T06:14:43;100291.47;;;27.89;28.06
46846;BME280;33947;46.804;134.252;2023-05-25T06:17:51;100293.09;;;27.82;27.89
46846;BME280;33947;46.804;134.252;2023-05-25T06:20:56;100293.16;;;27.64;28.14
46846;BME280;33947;46.804;134.252;2023-05-25T06:24:00;100295.63;;;27.75;27.85
46846;BME280;33947;46.804;134.252;2023-05-25T06:27:04;100283.00;;;27.74;28.20
46846;BME280;33947;46.804;134.252;2023-05-25T06:30:09;100284.41;;;27.78;28.71
46846;BME280;33947;46.804;134.252;2023-05-25T06:33:13;100288.84;;;27.79;28.64
46846;BME280;33947;46.804;134.252;2023-05-25T06:36:18;100283.34;;;27.71;28.73
46846;BME280;33947;46.804;134.252;2023-05-25T06:39:22;100278.28;;;27.58;29.22
46846;BME280;33947;46.804;134.252;2023-05-25T06:42:29;100283.44;;;27.43;29.68
46846;BME280;33947;46.804;134.252;2023-05-25T06:45:36;100284.16;;;27.27;29.55
46846;BME280;33947;46.804;134.252;2023-05-25T06:48:41;100281.28;;;27.10;29.72
46846;BME280;33947;46.804;134.252;2023-05-25T06:51:45;100273.63;;;26.96;29.69
46846;BME280;33947;46.804;134.252;2023-05-25T06:54:49;100278.78;;;26.99;30.28
46846;BME280;33947;46.804;134.252;2023-05-25T06:57:53;100277.13;;;26.88;30.76
46846;BME280;33947;46.804;134.252;2023-05-25T07:00:57;100281.72;;;26.87;31.33
46846;BME280;33947;46.804;134.252;2023-05-25T07:04:05;100289.63;;;26.81;31.75
46846;BME280;33947;46.804;134.252;2023-05-25T07:07:18;100229.81;;;26.43;32.02
46846;BME280;33947;46.804;134.252;2023-05-25T07:10:25;100254.50;;;26.59;31.86
46846;BME280;33947;46.804;134.252;2023-05-25T07:13:30;100271.94;;;26.67;32.33
46846;BME280;33947;46.804;134.252;2023-05-25T07:16:34;100280.03;;;26.77;32.75
46846;BME280;33947;46.804;134.252;2023-05-25T07:19:38;100258.22;;;26.58;33.00
46846;BME280;33947;46.804;134.252;2023-05-25T07:22:42;100282.34;;;26.53;32.88
46846;BME280;33947;46.804;134.252;2023-05-25T07:25:46;100282.78;;;26.49;33.36
46846;BME280;33947;46.804;134.252;2023-05-25T07:28:50;100277.25;;;26.40;33.15
46846;BME280;33947;46.804;134.252;2023-05-25T07:31:55;100289.72;;;26.43;33.26
46846;BME280;33947;46.804;134.252;2023-05-25T07:34:59;100262.97;;;26.28;33.96
46846;BME280;33947;46.804;134.252;2023-05-25T07:38:04;100251.94;;;26.30;33.69
46846;BME280;33947;46.804;134.252;2023-05-25T07:41:09;100285.91;;;26.36;34.13
46846;BME280;33947;46.804;134.252;2023-05-25T07:44:14;100274.56;;;26.30;34.77
46846;BME280;33947;46.804;134.252;2023-05-25T07:47:18;100269.28;;;26.29;35.12
46846;BME280;33947;46.804;134.252;2023-05-25T07:50:22;100238.25;;;26.12;35.14
46846;BME280;33947;46.804;134.252;2023-05-25T07:53:26;100260.13;;;26.30;35.16
46846;BME280;33947;46.804;134.252;2023-05-25T07:56:30;100250.06;;;26.58;34.98
46846;BME280;33947;46.804;134.252;2023-05-25T07:59:35;100270.84;;;26.87;35.06
46846;BME280;33947;46.804;134.252;2023-05-25T08:02:39;100259.13;;;26.77;34.25
46846;BME280;33947;46.804;134.252;2023-05-25T08:05:43;100278.38;;;26.66;34.48
46846;BME280;33947;46.804;134.252;2023-05-25T08:08:48;100259.53;;;26.54;34.42
46846;BME280;33947;46.804;134.252;2023-05-25T08:11:56;100272.91;;;26.48;34.31
46846;BME280;33947;46.804;134.252;2023-05-25T08:15:20;100286.47;;;26.29;34.87
46846;BME280;33947;46.804;134.252;2023-05-25T08:18:25;100283.25;;;26.06;34.91
46846;BME280;33947;46.804;134.252;2023-05-25T08:21:29;100284.31;;;25.95;35.36
46846;BME280;33947;46.804;134.252;2023-05-25T08:24:37;100289.91;;;25.74;35.63
46846;BME280;33947;46.804;134.252;2023-05-25T08:27:41;100271.22;;;25.51;35.77
46846;BME280;33947;46.804;134.252;2023-05-25T08:30:45;100279.06;;;25.44;36.16
46846;BME280;33947;46.804;134.252;2023-05-25T08:33:55;100292.56;;;25.46;36.23
46846;BME280;33947;46.804;134.252;2023-05-25T08:36:59;100301.81;;;25.43;36.48
46846;BME280;33947;46.804;134.252;2023-05-25T08:40:05;100292.97;;;25.32;36.79
46846;BME280;33947;46.804;134.252;2023-05-25T08:43:10;100280.22;;;25.22;36.82
46846;BME280;33947;46.804;134.252;2023-05-25T08:46:28;100293.69;;;25.24;37.12
46846;BME280;33947;46.804;134.252;2023-05-25T08:49:38;100265.78;;;25.02;37.33
46846;BME280;33947;46.804;134.252;2023-05-25T08:52:45;100272.78;;;25.14;37.12
46846;BME280;33947;46.804;134.252;2023-05-25T08:55:51;100290.69;;;25.27;37.50
46846;BME280;33947;46.804;134.252;2023-05-25T09:02:33;100294.97;;;25.10;38.36
46846;BME280;33947;46.804;134.252;2023-05-25T09:05:42;100282.22;;;25.10;38.08
46846;BME280;33947;46.804;134.252;2023-05-25T09:08:46;100297.69;;;25.29;37.74
46846;BME280;33947;46.804;134.252;2023-05-25T09:12:40;100303.84;;;25.22;38.57
46846;BME280;33947;46.804;134.252;2023-05-25T09:15:42;100287.81;;;25.09;38.39
46846;BME280;33947;46.804;134.252;2023-05-25T09:18:55;100293.38;;;25.07;38.93
46846;BME280;33947;46.804;134.252;2023-05-25T09:22:00;100275.78;;;24.92;39.12
46846;BME280;33947;46.804;134.252;2023-05-25T09:25:20;100280.81;;;24.87;39.79
46846;BME280;33947;46.804;134.252;2023-05-25T09:28:28;100290.34;;;24.81;40.21
46846;BME280;33947;46.804;134.252;2023-05-25T09:31:35;100306.25;;;24.85;40.58
46846;BME280;33947;46.804;134.252;2023-05-25T09:35:08;100288.56;;;24.60;41.35
46846;BME280;33947;46.804;134.252;2023-05-25T09:38:14;100306.41;;;24.53;41.25
46846;BME280;33947;46.804;134.252;2023-05-25T09:41:28;100305.94;;;24.38;42.04
46846;BME280;33947;46.804;134.252;2023-05-25T09:44:32;100278.56;;;23.89;43.03
46846;BME280;33947;46.804;134.252;2023-05-25T09:47:44;100310.69;;;24.14;43.24
46846;BME280;33947;46.804;134.252;2023-05-25T09:50:48;100314.09;;;24.07;43.74
46846;BME280;33947;46.804;134.252;2023-05-25T09:53:52;100313.22;;;23.85;44.53
46846;BME280;33947;46.804;134.252;2023-05-25T09:57:02;100316.00;;;23.74;44.74
46846;BME280;33947;46.804;134.252;2023-05-25T10:00:19;100310.03;;;23.37;47.76
46846;BME280;33947;46.804;134.252;2023-05-25T10:03:26;100266.16;;;23.11;46.33
46846;BME280;33947;46.804;134.252;2023-05-25T10:06:31;100306.72;;;23.34;45.94
46846;BME280;33947;46.804;134.252;2023-05-25T10:09:45;100313.53;;;23.17;46.85
46846;BME280;33947;46.804;134.252;2023-05-25T10:12:51;100320.88;;;22.93;47.23
46846;BME280;33947;46.804;134.252;2023-05-25T10:15:56;100307.63;;;22.79;46.95
46846;BME280;33947;46.804;134.252;2023-05-25T10:19:11;100322.97;;;22.90;46.21
46846;BME280;33947;46.804;134.252;2023-05-25T10:22:24;100323.25;;;22.75;45.79
46846;BME280;33947;46.804;134.252;2023-05-25T10:25:41;100312.09;;;22.57;45.60
46846;BME280;33947;46.804;134.252;2023-05-25T10:28:49;100307.03;;;22.52;45.37
46846;BME280;33947;46.804;134.252;2023-05-25T10:31:57;100282.53;;;22.31;45.14
46846;BME280;33947;46.804;134.252;2023-05-25T10:35:05;100318.97;;;22.38;45.36
46846;BME280;33947;46.804;134.252;2023-05-25T10:38:13;100313.56;;;22.16;45.45
46846;BME280;33947;46.804;134.252;2023-05-25T10:41:19;100312.56;;;22.17;44.78
46846;BME280;33947;46.804;134.252;2023-05-25T10:44:24;100310.47;;;22.09;44.77
46846;BME280;33947;46.804;134.252;2023-05-25T10:47:40;100308.00;;;21.83;45.91
46846;BME280;33947;46.804;134.252;2023-05-25T10:50:50;100319.78;;;21.58;47.36
46846;BME280;33947;46.804;134.252;2023-05-25T10:53:59;100319.94;;;21.56;46.62
46846;BME280;33947;46.804;134.252;2023-05-25T10:57:18;100324.59;;;21.54;46.48
46846;BME280;33947;46.804;134.252;2023-05-25T11:00:23;100332.66;;;21.43;46.26
46846;BME280;33947;46.804;134.252;2023-05-25T11:07:13;100296.91;;;21.03;45.79
46846;BME280;33947;46.804;134.252;2023-05-25T11:10:40;100365.31;;;21.39;45.46
46846;BME280;33947;46.804;134.252;2023-05-25T11:13:48;100368.38;;;21.35;45.21
46846;BME280;33947;46.804;134.252;2023-05-25T11:20:26;100386.78;;;21.30;45.17
46846;BME280;33947;46.804;134.252;2023-05-25T11:23:30;100389.94;;;21.48;44.60
46846;BME280;33947;46.804;134.252;2023-05-25T11:26:35;100396.34;;;21.58;44.32
46846;BME280;33947;46.804;134.252;2023-05-25T11:29:42;100399.75;;;21.73;44.17
46846;BME280;33947;46.804;134.252;2023-05-25T11:32:49;100424.53;;;21.91;43.94
46846;BME280;33947;46.804;134.252;2023-05-25T11:35:54;100419.63;;;21.96;43.61
46846;BME280;33947;46.804;134.252;2023-05-25T11:39:04;100433.16;;;21.96;43.63
46846;BME280;33947;46.804;134.252;2023-05-25T11:42:23;100441.25;;;21.96;43.71
46846;BME280;33947;46.804;134.252;2023-05-25T11:45:28;100431.25;;;21.86;43.94
46846;BME280;33947;46.804;134.252;2023-05-25T11:48:34;100417.88;;;21.84;43.00
46846;BME280;33947;46.804;134.252;2023-05-25T11:51:42;100436.56;;;21.87;42.88
46846;BME280;33947;46.804;134.252;2023-05-25T11:54:54;100419.09;;;21.80;41.58
46846;BME280;33947;46.804;134.252;2023-05-25T11:58:00;100436.50;;;22.11;39.47
46846;BME280;33947;46.804;134.252;2023-05-25T12:01:23;100453.69;;;21.99;38.84
46846;BME280;33947;46.804;134.252;2023-05-25T12:04:32;100454.38;;;21.90;39.08
46846;BME280;33947;46.804;134.252;2023-05-25T12:07:46;100444.41;;;21.79;37.31
46846;BME280;33947;46.804;134.252;2023-05-25T12:10:52;100451.63;;;21.78;38.35
46846;BME280;33947;46.804;134.252;2023-05-25T12:13:59;100459.25;;;21.73;38.12
46846;BME280;33947;46.804;134.252;2023-05-25T12:17:04;100457.50;;;21.48;37.49
46846;BME280;33947;46.804;134.252;2023-05-25T12:20:10;100461.53;;;21.66;37.25
46846;BME280;33947;46.804;134.252;2023-05-25T12:23:18;100466.44;;;21.48;37.03
46846;BME280;33947;46.804;134.252;2023-05-25T12:26:22;100335.84;;;20.62;37.19
46846;BME280;33947;46.804;134.252;2023-05-25T12:29:29;100446.22;;;21.30;36.72
46846;BME280;33947;46.804;134.252;2023-05-25T12:32:58;100471.38;;;21.30;35.45
46846;BME280;33947;46.804;134.252;2023-05-25T12:36:09;100440.53;;;21.08;35.18
46846;BME280;33947;46.804;134.252;2023-05-25T12:42:55;100452.94;;;21.11;35.33
46846;BME280;33947;46.804;134.252;2023-05-25T12:45:59;100481.97;;;21.20;35.76
46846;BME280;33947;46.804;134.252;2023-05-25T12:49:31;100458.59;;;20.95;36.04
46846;BME280;33947;46.804;134.252;2023-05-25T12:52:46;100467.22;;;21.00;36.34
46846;BME280;33947;46.804;134.252;2023-05-25T12:56:00;100486.69;;;21.05;36.14
46846;BME280;33947;46.804;134.252;2023-05-25T12:59:16;100476.97;;;20.90;35.94
46846;BME280;33947;46.804;134.252;2023-05-25T13:02:20;100492.19;;;21.04;35.81
46846;BME280;33947;46.804;134.252;2023-05-25T13:05:30;100481.53;;;20.89;36.18
46846;BME280;33947;46.804;134.252;2023-05-25T13:08:45;100496.81;;;21.15;34.39
46846;BME280;33947;46.804;134.252;2023-05-25T13:12:05;100483.84;;;21.07;33.85
46846;BME280;33947;46.804;134.252;2023-05-25T13:15:18;100503.50;;;21.09;33.38
46846;BME280;33947;46.804;134.252;2023-05-25T13:18:32;100476.31;;;20.73;32.90
46846;BME280;33947;46.804;134.252;2023-05-25T13:21:43;100480.75;;;20.74;32.78
46846;BME280;33947;46.804;134.252;2023-05-25T13:24:51;100484.09;;;20.65;33.29
46846;BME280;33947;46.804;134.252;2023-05-25T13:28:03;100474.50;;;20.48;33.45
46846;BME280;33947;46.804;134.252;2023-05-25T13:31:16;100532.88;;;20.62;33.63
46846;BME280;33947;46.804;134.252;2023-05-25T13:34:21;100482.53;;;20.22;33.79
46846;BME280;33947;46.804;134.252;2023-05-25T13:37:26;100536.53;;;20.35;33.59
46846;BME280;33947;46.804;134.252;2023-05-25T13:40:32;100542.69;;;20.50;33.86
46846;BME280;33947;46.804;134.252;2023-05-25T13:43:37;100520.66;;;20.43;32.99
46846;BME280;33947;46.804;134.252;2023-05-25T13:46:41;100502.28;;;20.22;33.63
46846;BME280;33947;46.804;134.252;2023-05-25T13:49:45;100485.94;;;19.98;33.49
46846;BME280;33947;46.804;134.252;2023-05-25T13:52:50;100542.50;;;20.53;32.88
46846;BME280;33947;46.804;134.252;2023-05-25T13:55:54;100468.06;;;20.10;32.71
46846;BME280;33947;46.804;134.252;2023-05-25T13:58:58;100524.53;;;20.26;32.63
46846;BME280;33947;46.804;134.252;2023-05-25T14:02:02;100534.78;;;20.34;32.67
46846;BME280;33947;46.804;134.252;2023-05-25T14:05:06;100543.72;;;20.34;32.52
46846;BME280;33947;46.804;134.252;2023-05-25T14:08:10;100541.78;;;20.36;32.79
46846;BME280;33947;46.804;134.252;2023-05-25T14:11:15;100547.16;;;20.23;33.05
46846;BME280;33947;46.804;134.252;2023-05-25T14:14:28;100539.22;;;20.07;33.02
46846;BME280;33947;46.804;134.252;2023-05-25T14:17:34;100529.50;;;19.92;32.94
46846;BME280;33947;46.804;134.252;2023-05-25T14:20:39;100525.41;;;19.99;33.16
46846;BME280;33947;46.804;134.252;2023-05-25T14:23:45;100527.69;;;20.05;33.03
46846;BME280;33947;46.804;134.252;2023-05-25T14:26:49;100553.81;;;20.05;33.40
46846;BME280;33947;46.804;134.252;2023-05-25T14:29:53;100529.09;;;19.84;33.18
46846;BME280;33947;46.804;134.252;2023-05-25T14:38:11;100381.66;;;19.03;33.02
46846;BME280;33947;46.804;134.252;2023-05-25T14:41:15;100528.78;;;19.88;33.64
46846;BME280;33947;46.804;134.252;2023-05-25T14:49:41;100539.13;;;19.40;35.63
46846;BME280;33947;46.804;134.252;2023-05-25T14:52:46;100532.63;;;19.57;34.32
46846;BME280;33947;46.804;134.252;2023-05-25T14:55:50;100531.41;;;19.48;34.70
46846;BME280;33947;46.804;134.252;2023-05-25T14:58:54;100535.66;;;19.37;34.93
46846;BME280;33947;46.804;134.252;2023-05-25T15:01:58;100545.59;;;19.37;35.20
46846;BME280;33947;46.804;134.252;2023-05-25T15:05:02;100511.44;;;18.94;36.04
46846;BME280;33947;46.804;134.252;2023-05-25T15:08:06;100545.22;;;19.14;35.71
46846;BME280;33947;46.804;134.252;2023-05-25T15:11:17;100528.97;;;19.58;34.46
46846;BME280;33947;46.804;134.252;2023-05-25T15:14:21;100524.22;;;19.76;33.78
46846;BME280;33947;46.804;134.252;2023-05-25T15:17:27;100528.44;;;19.80;33.65
46846;BME280;33947;46.804;134.252;2023-05-25T15:20:31;100520.91;;;19.85;33.45
46846;BME280;33947;46.804;134.252;2023-05-25T15:23:35;100524.28;;;19.47;34.40
46846;BME280;33947;46.804;134.252;2023-05-25T15:26:39;100527.56;;;19.37;34.38
46846;BME280;33947;46.804;134.252;2023-05-25T15:29:43;100533.16;;;19.34;34.86
46846;BME280;33947;46.804;134.252;2023-05-25T15:32:51;100530.00;;;19.70;33.86
46846;BME280;33947;46.804;134.252;2023-05-25T15:35:55;100513.44;;;19.90;33.01
46846;BME280;33947;46.804;134.252;2023-05-25T15:38:59;100520.28;;;19.67;33.74
46846;BME280;33947;46.804;134.252;2023-05-25T15:42:04;100533.03;;;19.50;34.17
46846;BME280;33947;46.804;134.252;2023-05-25T15:45:08;100524.13;;;19.35;34.73
46846;BME280;33947;46.804;134.252;2023-05-25T15:48:12;100536.84;;;19.19;35.20
46846;BME280;33947;46.804;134.252;2023-05-25T15:51:18;100526.84;;;19.21;35.21
46846;BME280;33947;46.804;134.252;2023-05-25T15:54:22;100527.69;;;19.21;35.00
46846;BME280;33947;46.804;134.252;2023-05-25T15:57:28;100520.50;;;19.22;34.89
46846;BME280;33947;46.804;134.252;2023-05-25T16:00:36;100529.91;;;19.29;34.62
46846;BME280;33947;46.804;134.252;2023-05-25T16:03:40;100534.41;;;19.43;34.25
46846;BME280;33947;46.804;134.252;2023-05-25T16:06:45;100521.34;;;19.37;34.22
46846;BME280;33947;46.804;134.252;2023-05-25T16:09:50;100526.06;;;19.04;35.02
46846;BME280;33947;46.804;134.252;2023-05-25T16:12:54;100526.28;;;19.16;35.06
46846;BME280;33947;46.804;134.252;2023-05-25T16:15:58;100526.75;;;19.08;35.09
46846;BME280;33947;46.804;134.252;2023-05-25T16:19:03;100480.38;;;18.74;35.26
46846;BME280;33947;46.804;134.252;2023-05-25T16:22:07;100526.81;;;19.35;34.50
46846;BME280;33947;46.804;134.252;2023-05-25T16:25:11;100521.06;;;19.13;34.95
46846;BME280;33947;46.804;134.252;2023-05-25T16:28:15;100490.88;;;18.78;35.62
46846;BME280;33947;46.804;134.252;2023-05-25T16:31:20;100509.28;;;18.56;36.53
46846;BME280;33947;46.804;134.252;2023-05-25T16:34:24;100517.38;;;18.56;36.31
46846;BME280;33947;46.804;134.252;2023-05-25T16:37:28;100522.34;;;18.47;36.90